sensor_id;sensor_type;location;lat;lon;timestamp;P1;durP1;ratioP1;P2;durP2;ratioP2
64598;SDS011;51008;51.504;11.548;2022-08-11T00:04:22;6.30;;;2.53;;
64598;SDS011;51008;51.504;11.548;2022-08-11T00:09:30;2.85;;;1.98;;
64598;SDS011;51008;51.504;11.548;2022-08-11T00:14:34;7.40;;;2.10;;
64598;SDS011;51008;51.504;11.548;2022-08-11T00:19:39;6.30;;;2.20;;
64598;SDS011;51008;51.504;11.548;2022-08-11T00:24:44;5.55;;;2.10;;
64598;SDS011;51008;51.504;11.548;2022-08-11T00:29:52;4.85;;;2.15;;
64598;SDS011;51008;51.504;11.548;2022-08-11T00:34:54;5.88;;;2.10;;
64598;SDS011;51008;51.504;11.548;2022-08-11T00:39:57;4.88;;;1.92;;
64598;SDS011;51008;51.504;11.548;2022-08-11T00:50:13;3.85;;;1.92;;
64598;SDS011;51008;51.504;11.548;2022-08-11T00:55:41;3.22;;;2.00;;
64598;SDS011;51008;51.504;11.548;2022-08-11T01:06:59;3.22;;;2.00;;
64598;SDS011;51008;51.504;11.548;2022-08-11T01:44:41;4.65;;;2.40;;
64598;SDS011;51008;51.504;11.548;2022-08-11T01:49:55;5.03;;;2.25;;
64598;SDS011;51008;51.504;11.548;2022-08-11T01:55:21;3.25;;;2.15;;
64598;SDS011;51008;51.504;11.548;2022-08-11T02:00:28;10.55;;;2.30;;
64598;SDS011;51008;51.504;11.548;2022-08-11T02:21:56;4.10;;;2.25;;
64598;SDS011;51008;51.504;11.548;2022-08-11T02:32:46;4.60;;;2.35;;
64598;SDS011;51008;51.504;11.548;2022-08-11T02:38:10;4.97;;;2.53;;
64598;SDS011;51008;51.504;11.548;2022-08-11T02:43:27;5.75;;;2.47;;
64598;SDS011;51008;51.504;11.548;2022-08-11T02:48:41;6.45;;;2.45;;
64598;SDS011;51008;51.504;11.548;2022-08-11T03:05:04;6.40;;;2.50;;
64598;SDS011;51008;51.504;11.548;2022-08-11T03:10:52;9.32;;;2.67;;
64598;SDS011;51008;51.504;11.548;2022-08-11T03:15:50;6.45;;;2.80;;
64598;SDS011;51008;51.504;11.548;2022-08-11T03:21:21;4.32;;;2.45;;
64598;SDS011;51008;51.504;11.548;2022-08-11T03:37:08;5.45;;;2.60;;
64598;SDS011;51008;51.504;11.548;2022-08-11T04:03:51;4.80;;;2.70;;
64598;SDS011;51008;51.504;11.548;2022-08-11T04:09:26;7.20;;;3.00;;
64598;SDS011;51008;51.504;11.548;2022-08-11T04:25:36;7.40;;;2.72;;
64598;SDS011;51008;51.504;11.548;2022-08-11T04:36:23;6.55;;;3.13;;
64598;SDS011;51008;51.504;11.548;2022-08-11T04:47:09;7.70;;;3.03;;
64598;SDS011;51008;51.504;11.548;2022-08-11T04:52:27;9.27;;;2.80;;
64598;SDS011;51008;51.504;11.548;2022-08-11T05:03:16;4.35;;;2.70;;
64598;SDS011;51008;51.504;11.548;2022-08-11T05:19:45;6.13;;;2.60;;
64598;SDS011;51008;51.504;11.548;2022-08-11T05:24:48;5.00;;;2.78;;
64598;SDS011;51008;51.504;11.548;2022-08-11T05:30:08;6.95;;;3.20;;
64598;SDS011;51008;51.504;11.548;2022-08-11T05:35:10;7.28;;;2.78;;
64598;SDS011;51008;51.504;11.548;2022-08-11T05:40:12;8.85;;;2.47;;
64598;SDS011;51008;51.504;11.548;2022-08-11T05:45:14;6.88;;;2.90;;
64598;SDS011;51008;51.504;11.548;2022-08-11T05:50:17;5.80;;;3.00;;
64598;SDS011;51008;51.504;11.548;2022-08-11T05:55:21;4.90;;;2.42;;
64598;SDS011;51008;51.504;11.548;2022-08-11T06:00:24;7.77;;;3.10;;
64598;SDS011;51008;51.504;11.548;2022-08-11T06:05:32;9.80;;;2.80;;
64598;SDS011;51008;51.504;11.548;2022-08-11T06:10:35;8.80;;;2.88;;
64598;SDS011;51008;51.504;11.548;2022-08-11T06:15:45;10.43;;;3.03;;
64598;SDS011;51008;51.504;11.548;2022-08-11T06:20:48;8.02;;;3.30;;
64598;SDS011;51008;51.504;11.548;2022-08-11T06:25:51;6.20;;;2.65;;
64598;SDS011;51008;51.504;11.548;2022-08-11T06:30:53;7.90;;;3.13;;
64598;SDS011;51008;51.504;11.548;2022-08-11T06:36:05;8.43;;;2.90;;
64598;SDS011;51008;51.504;11.548;2022-08-11T06:41:18;9.60;;;3.03;;
64598;SDS011;51008;51.504;11.548;2022-08-11T06:46:29;10.20;;;3.03;;
64598;SDS011;51008;51.504;11.548;2022-08-11T06:51:34;9.43;;;3.22;;
64598;SDS011;51008;51.504;11.548;2022-08-11T06:56:37;15.45;;;3.20;;
64598;SDS011;51008;51.504;11.548;2022-08-11T07:17:43;7.65;;;3.22;;
64598;SDS011;51008;51.504;11.548;2022-08-11T07:22:53;7.40;;;3.20;;
64598;SDS011;51008;51.504;11.548;2022-08-11T07:27:59;11.02;;;3.50;;
64598;SDS011;51008;51.504;11.548;2022-08-11T07:33:02;15.45;;;3.20;;
64598;SDS011;51008;51.504;11.548;2022-08-11T07:38:06;13.27;;;3.22;;
64598;SDS011;51008;51.504;11.548;2022-08-11T07:43:11;7.32;;;3.05;;
64598;SDS011;51008;51.504;11.548;2022-08-11T07:48:13;11.85;;;3.38;;
64598;SDS011;51008;51.504;11.548;2022-08-11T07:58:19;8.93;;;3.63;;
64598;SDS011;51008;51.504;11.548;2022-08-11T08:03:21;9.65;;;3.17;;
64598;SDS011;51008;51.504;11.548;2022-08-11T08:08:23;13.82;;;3.60;;
64598;SDS011;51008;51.504;11.548;2022-08-11T08:13:25;16.02;;;4.03;;
64598;SDS011;51008;51.504;11.548;2022-08-11T08:18:26;12.68;;;3.70;;
64598;SDS011;51008;51.504;11.548;2022-08-11T08:23:28;14.18;;;3.50;;
64598;SDS011;51008;51.504;11.548;2022-08-11T08:28:29;11.23;;;3.80;;
64598;SDS011;51008;51.504;11.548;2022-08-11T08:33:30;13.05;;;3.97;;
64598;SDS011;51008;51.504;11.548;2022-08-11T08:38:32;15.67;;;3.87;;
64598;SDS011;51008;51.504;11.548;2022-08-11T08:43:33;16.48;;;4.25;;
64598;SDS011;51008;51.504;11.548;2022-08-11T08:48:35;13.27;;;3.83;;
64598;SDS011;51008;51.504;11.548;2022-08-11T08:53:38;13.52;;;3.90;;
64598;SDS011;51008;51.504;11.548;2022-08-11T08:58:41;17.70;;;4.30;;
64598;SDS011;51008;51.504;11.548;2022-08-11T09:03:45;12.77;;;3.80;;
64598;SDS011;51008;51.504;11.548;2022-08-11T09:08:46;30.73;;;4.82;;
64598;SDS011;51008;51.504;11.548;2022-08-11T09:13:47;11.57;;;4.03;;
64598;SDS011;51008;51.504;11.548;2022-08-11T09:18:50;20.77;;;4.32;;
64598;SDS011;51008;51.504;11.548;2022-08-11T09:23:52;14.38;;;3.90;;
64598;SDS011;51008;51.504;11.548;2022-08-11T09:28:53;24.90;;;3.90;;
64598;SDS011;51008;51.504;11.548;2022-08-11T09:33:55;18.13;;;4.10;;
64598;SDS011;51008;51.504;11.548;2022-08-11T09:38:56;15.02;;;3.78;;
64598;SDS011;51008;51.504;11.548;2022-08-11T09:43:59;9.43;;;3.60;;
64598;SDS011;51008;51.504;11.548;2022-08-11T09:49:01;13.10;;;3.63;;
64598;SDS011;51008;51.504;11.548;2022-08-11T09:54:04;12.00;;;3.60;;
64598;SDS011;51008;51.504;11.548;2022-08-11T09:59:05;4.80;;;3.10;;
64598;SDS011;51008;51.504;11.548;2022-08-11T10:04:08;7.97;;;3.55;;
64598;SDS011;51008;51.504;11.548;2022-08-11T10:09:17;9.50;;;3.28;;
64598;SDS011;51008;51.504;11.548;2022-08-11T10:14:19;9.77;;;3.40;;
64598;SDS011;51008;51.504;11.548;2022-08-11T10:19:20;8.03;;;3.20;;
64598;SDS011;51008;51.504;11.548;2022-08-11T10:24:21;5.22;;;3.45;;
64598;SDS011;51008;51.504;11.548;2022-08-11T10:29:35;6.03;;;3.53;;
64598;SDS011;51008;51.504;11.548;2022-08-11T10:34:38;8.07;;;3.45;;
64598;SDS011;51008;51.504;11.548;2022-08-11T10:39:40;14.90;;;3.58;;
64598;SDS011;51008;51.504;11.548;2022-08-11T10:44:43;6.35;;;3.42;;
64598;SDS011;51008;51.504;11.548;2022-08-11T10:49:47;9.52;;;3.40;;
64598;SDS011;51008;51.504;11.548;2022-08-11T10:54:48;10.37;;;3.43;;
64598;SDS011;51008;51.504;11.548;2022-08-11T10:59:49;12.40;;;3.80;;
64598;SDS011;51008;51.504;11.548;2022-08-11T11:09:53;14.10;;;3.88;;
64598;SDS011;51008;51.504;11.548;2022-08-11T11:14:57;10.40;;;3.55;;
64598;SDS011;51008;51.504;11.548;2022-08-11T11:20:02;7.05;;;3.13;;
64598;SDS011;51008;51.504;11.548;2022-08-11T11:25:12;9.05;;;3.55;;
64598;SDS011;51008;51.504;11.548;2022-08-11T11:30:17;8.93;;;4.03;;
64598;SDS011;51008;51.504;11.548;2022-08-11T11:40:31;10.27;;;3.33;;
64598;SDS011;51008;51.504;11.548;2022-08-11T11:45:33;6.85;;;3.33;;
64598;SDS011;51008;51.504;11.548;2022-08-11T11:50:36;4.73;;;3.17;;
64598;SDS011;51008;51.504;11.548;2022-08-11T11:55:38;8.02;;;3.85;;
64598;SDS011;51008;51.504;11.548;2022-08-11T12:00:39;8.32;;;3.50;;
64598;SDS011;51008;51.504;11.548;2022-08-11T12:05:43;9.98;;;3.40;;
64598;SDS011;51008;51.504;11.548;2022-08-11T12:10:50;6.95;;;3.40;;
64598;SDS011;51008;51.504;11.548;2022-08-11T12:15:53;10.45;;;3.63;;
64598;SDS011;51008;51.504;11.548;2022-08-11T12:20:54;11.45;;;3.45;;
64598;SDS011;51008;51.504;11.548;2022-08-11T12:25:56;6.00;;;3.30;;
64598;SDS011;51008;51.504;11.548;2022-08-11T12:30:58;8.73;;;3.60;;
64598;SDS011;51008;51.504;11.548;2022-08-11T12:35:59;9.80;;;3.42;;
64598;SDS011;51008;51.504;11.548;2022-08-11T12:41:00;9.15;;;3.40;;
64598;SDS011;51008;51.504;11.548;2022-08-11T12:46:03;6.35;;;3.13;;
64598;SDS011;51008;51.504;11.548;2022-08-11T12:51:08;12.10;;;3.67;;
64598;SDS011;51008;51.504;11.548;2022-08-11T12:56:11;10.63;;;3.65;;
64598;SDS011;51008;51.504;11.548;2022-08-11T13:01:12;8.68;;;3.30;;
64598;SDS011;51008;51.504;11.548;2022-08-11T13:06:13;7.97;;;3.05;;
64598;SDS011;51008;51.504;11.548;2022-08-11T13:11:15;10.20;;;3.28;;
64598;SDS011;51008;51.504;11.548;2022-08-11T13:16:17;12.18;;;3.63;;
64598;SDS011;51008;51.504;11.548;2022-08-11T13:21:20;8.00;;;3.67;;
64598;SDS011;51008;51.504;11.548;2022-08-11T13:26:22;6.88;;;3.05;;
64598;SDS011;51008;51.504;11.548;2022-08-11T13:31:23;12.85;;;3.30;;
64598;SDS011;51008;51.504;11.548;2022-08-11T13:36:24;7.80;;;3.42;;
64598;SDS011;51008;51.504;11.548;2022-08-11T13:46:27;16.60;;;3.53;;
64598;SDS011;51008;51.504;11.548;2022-08-11T13:51:29;6.40;;;3.33;;
64598;SDS011;51008;51.504;11.548;2022-08-11T13:56:31;7.00;;;3.17;;
64598;SDS011;51008;51.504;11.548;2022-08-11T14:01:35;8.10;;;3.40;;
64598;SDS011;51008;51.504;11.548;2022-08-11T14:06:39;7.97;;;3.53;;
64598;SDS011;51008;51.504;11.548;2022-08-11T14:11:44;6.78;;;3.30;;
64598;SDS011;51008;51.504;11.548;2022-08-11T14:16:46;8.40;;;3.20;;
64598;SDS011;51008;51.504;11.548;2022-08-11T14:21:48;7.75;;;3.20;;
64598;SDS011;51008;51.504;11.548;2022-08-11T14:26:51;7.78;;;3.45;;
64598;SDS011;51008;51.504;11.548;2022-08-11T14:37:07;10.90;;;3.72;;
64598;SDS011;51008;51.504;11.548;2022-08-11T14:42:14;6.00;;;3.42;;
64598;SDS011;51008;51.504;11.548;2022-08-11T14:47:17;15.32;;;4.15;;
64598;SDS011;51008;51.504;11.548;2022-08-11T14:52:18;9.05;;;3.67;;
64598;SDS011;51008;51.504;11.548;2022-08-11T14:57:20;9.03;;;3.90;;
64598;SDS011;51008;51.504;11.548;2022-08-11T15:02:22;10.32;;;3.67;;
64598;SDS011;51008;51.504;11.548;2022-08-11T15:07:24;15.88;;;3.90;;
64598;SDS011;51008;51.504;11.548;2022-08-11T15:12:26;17.95;;;3.28;;
64598;SDS011;51008;51.504;11.548;2022-08-11T15:17:31;9.30;;;3.28;;
64598;SDS011;51008;51.504;11.548;2022-08-11T15:22:34;7.55;;;3.85;;
64598;SDS011;51008;51.504;11.548;2022-08-11T15:27:35;12.57;;;4.03;;
64598;SDS011;51008;51.504;11.548;2022-08-11T15:32:37;6.43;;;3.55;;
64598;SDS011;51008;51.504;11.548;2022-08-11T15:37:42;9.52;;;4.00;;
64598;SDS011;51008;51.504;11.548;2022-08-11T15:43:30;8.95;;;3.30;;
64598;SDS011;51008;51.504;11.548;2022-08-11T15:48:39;7.00;;;3.30;;
64598;SDS011;51008;51.504;11.548;2022-08-11T15:53:46;9.20;;;3.25;;
64598;SDS011;51008;51.504;11.548;2022-08-11T15:58:51;5.88;;;3.00;;
64598;SDS011;51008;51.504;11.548;2022-08-11T16:03:59;6.15;;;3.10;;
64598;SDS011;51008;51.504;11.548;2022-08-11T16:09:02;8.20;;;3.28;;
64598;SDS011;51008;51.504;11.548;2022-08-11T16:14:04;7.85;;;2.90;;
64598;SDS011;51008;51.504;11.548;2022-08-11T16:19:08;8.02;;;2.80;;
64598;SDS011;51008;51.504;11.548;2022-08-11T16:24:11;7.00;;;3.00;;
64598;SDS011;51008;51.504;11.548;2022-08-11T16:29:14;5.57;;;3.00;;
64598;SDS011;51008;51.504;11.548;2022-08-11T16:34:16;8.73;;;3.40;;
64598;SDS011;51008;51.504;11.548;2022-08-11T16:39:17;8.38;;;2.97;;
64598;SDS011;51008;51.504;11.548;2022-08-11T16:44:19;7.82;;;3.30;;
64598;SDS011;51008;51.504;11.548;2022-08-11T16:49:26;8.07;;;3.00;;
64598;SDS011;51008;51.504;11.548;2022-08-11T16:54:31;7.15;;;3.03;;
64598;SDS011;51008;51.504;11.548;2022-08-11T16:59:36;5.88;;;2.95;;
64598;SDS011;51008;51.504;11.548;2022-08-11T17:04:40;7.85;;;3.13;;
64598;SDS011;51008;51.504;11.548;2022-08-11T17:09:47;10.77;;;3.00;;
64598;SDS011;51008;51.504;11.548;2022-08-11T17:14:54;5.10;;;3.30;;
64598;SDS011;51008;51.504;11.548;2022-08-11T17:20:00;7.53;;;3.15;;
64598;SDS011;51008;51.504;11.548;2022-08-11T17:25:04;13.55;;;3.47;;
64598;SDS011;51008;51.504;11.548;2022-08-11T17:30:07;9.90;;;3.40;;
64598;SDS011;51008;51.504;11.548;2022-08-11T17:35:18;6.68;;;3.15;;
64598;SDS011;51008;51.504;11.548;2022-08-11T17:40:21;8.15;;;3.10;;
64598;SDS011;51008;51.504;11.548;2022-08-11T17:45:23;9.25;;;3.40;;
64598;SDS011;51008;51.504;11.548;2022-08-11T17:50:24;15.70;;;3.77;;
64598;SDS011;51008;51.504;11.548;2022-08-11T17:55:27;9.00;;;3.33;;
64598;SDS011;51008;51.504;11.548;2022-08-11T18:00:29;6.80;;;3.17;;
64598;SDS011;51008;51.504;11.548;2022-08-11T18:05:34;6.88;;;3.55;;
64598;SDS011;51008;51.504;11.548;2022-08-11T18:10:37;6.78;;;3.85;;
64598;SDS011;51008;51.504;11.548;2022-08-11T18:20:42;8.43;;;3.63;;
64598;SDS011;51008;51.504;11.548;2022-08-11T18:25:43;7.75;;;3.63;;
64598;SDS011;51008;51.504;11.548;2022-08-11T18:30:47;8.38;;;4.40;;
64598;SDS011;51008;51.504;11.548;2022-08-11T18:35:53;6.85;;;3.30;;
64598;SDS011;51008;51.504;11.548;2022-08-11T18:40:58;11.65;;;3.17;;
64598;SDS011;51008;51.504;11.548;2022-08-11T18:46:03;7.00;;;3.75;;
64598;SDS011;51008;51.504;11.548;2022-08-11T18:51:06;10.00;;;5.07;;
64598;SDS011;51008;51.504;11.548;2022-08-11T18:56:09;10.82;;;5.15;;
64598;SDS011;51008;51.504;11.548;2022-08-11T19:01:11;9.18;;;5.47;;
64598;SDS011;51008;51.504;11.548;2022-08-11T19:06:17;13.32;;;6.15;;
64598;SDS011;51008;51.504;11.548;2022-08-11T19:11:20;13.32;;;6.43;;
64598;SDS011;51008;51.504;11.548;2022-08-11T19:16:23;15.00;;;5.72;;
64598;SDS011;51008;51.504;11.548;2022-08-11T19:21:25;9.20;;;4.80;;
64598;SDS011;51008;51.504;11.548;2022-08-11T19:26:28;11.10;;;4.93;;
64598;SDS011;51008;51.504;11.548;2022-08-11T19:31:32;11.80;;;4.18;;
64598;SDS011;51008;51.504;11.548;2022-08-11T19:36:33;6.95;;;3.97;;
64598;SDS011;51008;51.504;11.548;2022-08-11T19:41:34;10.80;;;4.18;;
64598;SDS011;51008;51.504;11.548;2022-08-11T19:46:37;16.65;;;4.43;;
64598;SDS011;51008;51.504;11.548;2022-08-11T19:51:40;8.07;;;3.97;;
64598;SDS011;51008;51.504;11.548;2022-08-11T19:56:43;6.97;;;3.53;;
64598;SDS011;51008;51.504;11.548;2022-08-11T20:01:45;11.45;;;4.05;;
64598;SDS011;51008;51.504;11.548;2022-08-11T20:06:46;6.55;;;3.42;;
64598;SDS011;51008;51.504;11.548;2022-08-11T20:11:48;5.53;;;3.22;;
64598;SDS011;51008;51.504;11.548;2022-08-11T20:16:54;4.90;;;3.72;;
64598;SDS011;51008;51.504;11.548;2022-08-11T20:21:56;6.90;;;4.05;;
64598;SDS011;51008;51.504;11.548;2022-08-11T20:26:59;9.02;;;4.18;;
64598;SDS011;51008;51.504;11.548;2022-08-11T20:32:02;3.95;;;3.25;;
64598;SDS011;51008;51.504;11.548;2022-08-11T20:37:03;6.45;;;3.58;;
64598;SDS011;51008;51.504;11.548;2022-08-11T20:42:06;8.73;;;3.22;;
64598;SDS011;51008;51.504;11.548;2022-08-11T20:47:08;6.43;;;3.55;;
64598;SDS011;51008;51.504;11.548;2022-08-11T20:52:11;6.80;;;3.33;;
64598;SDS011;51008;51.504;11.548;2022-08-11T20:57:12;8.57;;;3.75;;
64598;SDS011;51008;51.504;11.548;2022-08-11T21:02:16;5.07;;;3.78;;
64598;SDS011;51008;51.504;11.548;2022-08-11T21:07:18;6.95;;;3.45;;
64598;SDS011;51008;51.504;11.548;2022-08-11T21:12:19;9.27;;;4.20;;
64598;SDS011;51008;51.504;11.548;2022-08-11T21:17:22;8.00;;;3.70;;
64598;SDS011;51008;51.504;11.548;2022-08-11T21:22:25;9.60;;;4.10;;
64598;SDS011;51008;51.504;11.548;2022-08-11T21:27:30;9.90;;;3.88;;
64598;SDS011;51008;51.504;11.548;2022-08-11T21:32:33;11.88;;;3.55;;
64598;SDS011;51008;51.504;11.548;2022-08-11T21:37:35;9.02;;;4.55;;
64598;SDS011;51008;51.504;11.548;2022-08-11T21:42:37;10.60;;;3.45;;
64598;SDS011;51008;51.504;11.548;2022-08-11T21:47:41;5.85;;;3.42;;
64598;SDS011;51008;51.504;11.548;2022-08-11T21:52:44;6.80;;;3.53;;
64598;SDS011;51008;51.504;11.548;2022-08-11T21:57:45;9.18;;;3.90;;
64598;SDS011;51008;51.504;11.548;2022-08-11T22:02:47;9.27;;;3.63;;
64598;SDS011;51008;51.504;11.548;2022-08-11T22:07:49;6.05;;;3.40;;
64598;SDS011;51008;51.504;11.548;2022-08-11T22:12:51;9.88;;;3.60;;
64598;SDS011;51008;51.504;11.548;2022-08-11T22:17:52;4.35;;;3.15;;
64598;SDS011;51008;51.504;11.548;2022-08-11T22:22:53;9.85;;;3.72;;
64598;SDS011;51008;51.504;11.548;2022-08-11T22:27:55;5.18;;;3.30;;
64598;SDS011;51008;51.504;11.548;2022-08-11T22:32:57;9.10;;;3.58;;
64598;SDS011;51008;51.504;11.548;2022-08-11T22:37:59;7.90;;;3.58;;
64598;SDS011;51008;51.504;11.548;2022-08-11T22:43:01;6.50;;;2.97;;
64598;SDS011;51008;51.504;11.548;2022-08-11T22:48:03;7.03;;;3.50;;
64598;SDS011;51008;51.504;11.548;2022-08-11T22:53:05;5.32;;;3.33;;
64598;SDS011;51008;51.504;11.548;2022-08-11T22:58:07;8.45;;;3.58;;
64598;SDS011;51008;51.504;11.548;2022-08-11T23:03:09;5.22;;;3.25;;
64598;SDS011;51008;51.504;11.548;2022-08-11T23:08:11;5.93;;;3.60;;
64598;SDS011;51008;51.504;11.548;2022-08-11T23:13:12;7.63;;;3.47;;
64598;SDS011;51008;51.504;11.548;2022-08-11T23:18:13;5.05;;;3.55;;
64598;SDS011;51008;51.504;11.548;2022-08-11T23:23:15;9.07;;;3.35;;
64598;SDS011;51008;51.504;11.548;2022-08-11T23:28:16;4.32;;;2.70;;
64598;SDS011;51008;51.504;11.548;2022-08-11T23:33:18;7.82;;;3.28;;
64598;SDS011;51008;51.504;11.548;2022-08-11T23:38:21;4.63;;;2.57;;
64598;SDS011;51008;51.504;11.548;2022-08-11T23:43:22;7.03;;;2.97;;
64598;SDS011;51008;51.504;11.548;2022-08-11T23:48:24;7.68;;;2.88;;
64598;SDS011;51008;51.504;11.548;2022-08-11T23:53:27;7.65;;;2.88;;
64598;SDS011;51008;51.504;11.548;2022-08-11T23:58:29;6.85;;;2.92;;
